createdAt,value
2023-02-23T00:01:27.972Z,96257.38
2023-02-23T00:03:58.338Z,96262.00
2023-02-23T00:06:28.054Z,96255.81
2023-02-23T00:08:58.064Z,96258.69
2023-02-23T00:11:27.271Z,96258.78
2023-02-23T00:13:56.928Z,96253.63
2023-02-23T00:16:27.180Z,96253.63
2023-02-23T00:19:00.416Z,96254.34
2023-02-23T00:21:31.550Z,96256.25
2023-02-23T00:24:01.305Z,96258.88
2023-02-23T00:26:31.618Z,96252.91
2023-02-23T00:29:00.335Z,96248.50
2023-02-23T00:31:29.797Z,96246.56
2023-02-23T00:34:00.334Z,96248.50
2023-02-23T00:36:29.989Z,96238.69
2023-02-23T00:39:00.712Z,96244.06
2023-02-23T00:41:29.948Z,96243.94
2023-02-23T00:44:00.001Z,96244.06
2023-02-23T00:46:30.056Z,96238.91
2023-02-23T00:49:00.524Z,96240.72
2023-02-23T00:51:30.990Z,96238.69
2023-02-23T00:54:00.802Z,96242.38
2023-02-23T00:56:29.525Z,96238.81
2023-02-23T00:58:58.840Z,96237.13
2023-02-23T01:01:27.844Z,96238.44
2023-02-23T01:03:55.782Z,96237.34
2023-02-23T01:06:26.570Z,96236.53
2023-02-23T01:08:56.831Z,96234.81
2023-02-23T01:11:28.807Z,96235.69
2023-02-23T01:13:58.670Z,96242.72
2023-02-23T01:16:28.634Z,96239.25
2023-02-23T01:18:57.788Z,96235.06
2023-02-23T01:21:29.822Z,96232.31
2023-02-23T01:23:58.519Z,96240.94
2023-02-23T01:26:28.898Z,96235.69
2023-02-23T01:28:58.558Z,96236.41
2023-02-23T01:31:27.178Z,96240.94
2023-02-23T01:33:55.775Z,96236.41
2023-02-23T01:36:25.467Z,96233.78
2023-02-23T01:38:56.873Z,96231.16
2023-02-23T01:41:26.842Z,96230.19
2023-02-23T01:43:57.188Z,96231.25
2023-02-23T01:46:25.073Z,96217.03
2023-02-23T01:48:56.410Z,96216.19
2023-02-23T01:51:28.138Z,96220.25
2023-02-23T01:54:00.927Z,96222.06
2023-02-23T01:56:32.775Z,96225.41
2023-02-23T01:59:06.426Z,96221.84
2023-02-23T02:01:38.590Z,96224.47
2023-02-23T02:04:06.824Z,96217.75
2023-02-23T02:06:37.322Z,96229.00
2023-02-23T02:09:10.759Z,96219.44
2023-02-23T02:11:39.316Z,96218.69
2023-02-23T02:14:13.184Z,96221.31
2023-02-23T02:17:11.260Z,96214.41
2023-02-23T02:20:12.799Z,96211.78
2023-02-23T02:23:19.682Z,96221.56
2023-02-23T02:26:06.178Z,96209.03
2023-02-23T02:28:59.627Z,96212.84
2023-02-23T02:32:07.964Z,96215.22
2023-02-23T02:35:08.060Z,96206.63
2023-02-23T02:37:48.425Z,96200.28
2023-02-23T02:40:23.298Z,96205.53
2023-02-23T02:43:11.990Z,96202.22
2023-02-23T02:45:49.922Z,96196.00
2023-02-23T02:48:25.808Z,96197.91
2023-02-23T02:50:59.397Z,96194.19
2023-02-23T02:53:40.979Z,96201.00
2023-02-23T02:56:11.055Z,96203.16
2023-02-23T02:58:43.579Z,96201.16
2023-02-23T03:01:33.211Z,96194.09
2023-02-23T03:04:21.536Z,96196.97
2023-02-23T03:07:16.115Z,96190.63
2023-02-23T03:10:10.111Z,96190.81
2023-02-23T03:13:02.960Z,96196.81
2023-02-23T03:16:00.275Z,96199.22
2023-02-23T03:19:06.287Z,96197.19
2023-02-23T03:21:58.880Z,96198.16
2023-02-23T03:24:53.308Z,96198.16
2023-02-23T03:27:45.113Z,96198.38
2023-02-23T03:30:38.173Z,96194.19
2023-02-23T03:33:30.737Z,96192.91
2023-02-23T03:36:21.423Z,96205.09
2023-02-23T03:39:12.173Z,96205.94
2023-02-23T03:42:03.149Z,96210.13
2023-02-23T03:44:54.948Z,96205.72
2023-02-23T03:47:43.961Z,96197.09
2023-02-23T03:50:36.382Z,96205.09
2023-02-23T03:53:25.821Z,96205.94
2023-02-23T03:56:16.237Z,96206.75
2023-02-23T03:59:06.815Z,96201.72
2023-02-23T04:01:55.175Z,96208.69
2023-02-23T04:04:43.028Z,96207.84
2023-02-23T04:07:32.517Z,96202.69
2023-02-23T04:10:17.793Z,96204.47
2023-02-23T04:13:10.558Z,96205.34
2023-02-23T04:15:40.289Z,96211.44
2023-02-23T04:18:14.381Z,96203.78
2023-02-23T04:20:42.282Z,96202.91
2023-02-23T04:23:10.377Z,96206.28
2023-02-23T04:25:38.208Z,96197.53
2023-02-23T04:28:06.423Z,96198.63
2023-02-23T04:30:34.585Z,96207.59
2023-02-23T04:33:02.453Z,96209.13
2023-02-23T04:35:31.674Z,96209.13
2023-02-23T04:37:59.722Z,96211.66
2023-02-23T04:40:28.694Z,96210.81
2023-02-23T04:42:57.241Z,96206.63
2023-02-23T04:45:27.074Z,96213.69
2023-02-23T04:47:55.048Z,96216.31
2023-02-23T04:50:22.955Z,96212.75
2023-02-23T04:52:53.085Z,96214.66
2023-02-23T04:55:23.388Z,96222.63
2023-02-23T04:57:51.394Z,96216.66
2023-02-23T05:00:20.178Z,96222.63
2023-02-23T05:02:49.624Z,96220.84
2023-02-23T05:05:18.674Z,96219.91
2023-02-23T05:07:46.686Z,96214.03
2023-02-23T05:10:15.864Z,96219.91
2023-02-23T05:12:43.634Z,96212.00
2023-02-23T05:15:12.271Z,96215.22
2023-02-23T05:17:42.298Z,96215.59
2023-02-23T05:20:12.173Z,96215.47
2023-02-23T05:22:40.264Z,96215.81
2023-02-23T05:25:10.137Z,96220.13
2023-02-23T05:27:39.800Z,96215.09
2023-02-23T05:30:09.930Z,96222.00
2023-02-23T05:32:38.185Z,96210.91
2023-02-23T05:35:07.122Z,96216.75
2023-02-23T05:37:34.943Z,96214.38
2023-02-23T05:40:02.774Z,96215.91
2023-02-23T05:42:30.843Z,96215.19
2023-02-23T05:45:00.005Z,96224.06
2023-02-23T05:47:27.855Z,96224.06
2023-02-23T05:49:55.655Z,96221.53
2023-02-23T05:52:23.547Z,96217.00
2023-02-23T05:54:51.460Z,96221.53
2023-02-23T05:57:19.279Z,96225.84
2023-02-23T05:59:47.142Z,96223.94
2023-02-23T06:02:16.555Z,96224.88
2023-02-23T06:04:44.826Z,96223.31
2023-02-23T06:07:12.702Z,96225.03
2023-02-23T06:09:42.893Z,96217.97
2023-02-23T06:12:11.890Z,96226.69
2023-02-23T06:14:39.757Z,96224.28
2023-02-23T06:17:08.168Z,96229.66
2023-02-23T06:19:37.870Z,96228.00
2023-02-23T06:22:05.738Z,96227.03
2023-02-23T06:24:34.378Z,96234.06
2023-02-23T06:27:02.286Z,96233.00
2023-02-23T06:29:30.155Z,96233.13
2023-02-23T06:32:00.702Z,96236.09
2023-02-23T06:34:29.038Z,96235.16
2023-02-23T06:36:58.429Z,96245.88
2023-02-23T06:39:26.410Z,96245.66
2023-02-23T06:41:54.228Z,96245.78
2023-02-23T06:44:22.620Z,96246.59
2023-02-23T06:46:50.486Z,96253.66
2023-02-23T06:49:18.394Z,96251.25
2023-02-23T06:51:46.247Z,96248.50
2023-02-23T06:54:16.228Z,96254.50
2023-02-23T06:56:44.118Z,96261.66
2023-02-23T06:59:12.049Z,96265.97
2023-02-23T07:01:39.850Z,96268.59
2023-02-23T07:04:08.182Z,96277.44
2023-02-23T07:06:36.077Z,96274.69
2023-02-23T07:09:03.929Z,96276.50
2023-02-23T07:11:33.097Z,96284.06
2023-02-23T07:14:01.472Z,96279.72
2023-02-23T07:16:29.760Z,96279.72
2023-02-23T07:18:57.685Z,96282.03
2023-02-23T07:21:25.561Z,96280.34
2023-02-23T07:23:53.458Z,96280.94
2023-02-23T07:26:21.325Z,96290.41
2023-02-23T07:28:51.827Z,96293.03
2023-02-23T07:31:21.610Z,96294.50
2023-02-23T07:33:49.640Z,96288.81
2023-02-23T07:36:17.437Z,96294.56
2023-02-23T07:38:45.381Z,96300.44
2023-02-23T07:41:13.247Z,96295.66
2023-02-23T07:43:41.251Z,96290.28
2023-02-23T07:46:10.507Z,96290.16
2023-02-23T07:48:39.284Z,96289.00
2023-02-23T07:51:11.144Z,96291.28
2023-02-23T07:53:38.984Z,96288.41
2023-02-23T07:56:08.414Z,96291.03
2023-02-23T07:58:36.396Z,96303.97
2023-02-23T08:01:05.219Z,96297.53
2023-02-23T08:03:34.705Z,96296.69
2023-02-23T08:06:02.579Z,96293.00
2023-02-23T08:08:30.424Z,96294.44
2023-02-23T08:11:01.825Z,96301.13
2023-02-23T08:13:29.834Z,96292.31
2023-02-23T08:15:57.959Z,96300.78
2023-02-23T08:18:26.256Z,96296.16
2023-02-23T08:21:00.417Z,96299.38
2023-02-23T08:23:30.377Z,96301.06
2023-02-23T08:25:59.701Z,96294.81
2023-02-23T08:28:28.150Z,96297.34
2023-02-23T08:30:56.195Z,96306.81
2023-02-23T08:33:24.226Z,96301.19
2023-02-23T08:35:53.525Z,96304.44
2023-02-23T08:38:22.823Z,96305.03
2023-02-23T08:40:50.681Z,96292.59
2023-02-23T08:43:18.505Z,96294.03
2023-02-23T08:45:46.439Z,96303.59
2023-02-23T08:48:14.300Z,96302.44
2023-02-23T08:50:42.087Z,96306.53
2023-02-23T08:53:10.617Z,96311.31
2023-02-23T08:55:40.270Z,96311.94
2023-02-23T08:58:10.773Z,96310.13
2023-02-23T09:00:39.382Z,96306.53
2023-02-23T09:03:07.806Z,96304.75
2023-02-23T09:05:38.832Z,96313.25
2023-02-23T09:08:07.243Z,96306.78
2023-02-23T09:10:36.184Z,96310.72
2023-02-23T09:13:05.376Z,96318.53
2023-02-23T09:15:33.178Z,96316.59
2023-02-23T09:18:02.368Z,96312.88
2023-02-23T09:20:30.257Z,96306.28
2023-02-23T09:22:58.101Z,96314.56
2023-02-23T09:25:27.254Z,96307.97
2023-02-23T09:27:57.032Z,96314.56
2023-02-23T09:30:27.913Z,96317.91
2023-02-23T09:32:56.586Z,96315.00
2023-02-23T09:35:25.573Z,96311.03
2023-02-23T09:37:56.389Z,96309.84
2023-02-23T09:40:26.215Z,96315.72
2023-02-23T09:43:03.912Z,96310.09
2023-02-23T09:45:41.001Z,96307.91
2023-02-23T09:48:18.999Z,96302.25
2023-02-23T09:50:50.917Z,96308.97
2023-02-23T09:53:34.077Z,96306.91
2023-02-23T09:56:04.175Z,96310.88
2023-02-23T09:58:35.258Z,96306.88
2023-02-23T10:01:34.694Z,96308.44
2023-02-23T10:04:08.747Z,96310.44
2023-02-23T10:06:36.573Z,96315.47
2023-02-23T10:09:15.639Z,96316.28
2023-02-23T10:11:51.530Z,96310.34
2023-02-23T10:14:31.680Z,96314.44
2023-02-23T10:17:15.610Z,96311.16
2023-02-23T10:19:52.198Z,96305.22
2023-02-23T10:22:21.748Z,96309.00
2023-02-23T10:24:55.293Z,96315.72
2023-02-23T10:27:29.043Z,96310.88
2023-02-23T10:30:00.232Z,96304.22
2023-02-23T10:32:38.999Z,96302.94
2023-02-23T10:35:12.856Z,96309.63
2023-02-23T10:37:40.789Z,96305.75
2023-02-23T10:40:16.627Z,96310.53
2023-02-23T10:42:44.895Z,96312.91
2023-02-23T10:45:19.716Z,96310.97
2023-02-23T10:47:51.297Z,96317.47
2023-02-23T10:50:22.489Z,96312.25
2023-02-23T10:52:54.045Z,96300.59
2023-02-23T10:55:26.359Z,96307.13
2023-02-23T10:58:04.279Z,96309.97
2023-02-23T11:00:33.795Z,96311.50
2023-02-23T11:03:04.377Z,96304.25
2023-02-23T11:05:36.054Z,96313.75
2023-02-23T11:08:22.290Z,96304.84
2023-02-23T11:10:58.505Z,96308.06
2023-02-23T11:13:28.916Z,96301.81
2023-02-23T11:16:05.834Z,96299.47
2023-02-23T11:18:35.203Z,96300.16
2023-02-23T11:21:03.263Z,96295.16
2023-02-23T11:23:35.947Z,96295.72
2023-02-23T11:26:05.902Z,96296.44
2023-02-23T11:28:35.768Z,96282.09
2023-02-23T11:31:06.084Z,96289.63
2023-02-23T11:33:37.469Z,96280.56
2023-02-23T11:36:26.580Z,96269.56
2023-02-23T11:39:03.406Z,96273.06
2023-02-23T11:41:32.901Z,96278.22
2023-02-23T11:44:06.104Z,96277.13
2023-02-23T11:46:39.271Z,96273.22
2023-02-23T11:49:09.930Z,96264.72
2023-02-23T11:51:41.244Z,96265.28
2023-02-23T11:54:21.281Z,96264.31
2023-02-23T11:56:52.080Z,96258.19
2023-02-23T11:59:26.455Z,96262.75
2023-02-23T12:01:57.844Z,96260.25
2023-02-23T12:04:31.494Z,96254.81
2023-02-23T12:07:24.817Z,96251.78
2023-02-23T12:10:03.051Z,96250.78
2023-02-23T12:12:34.673Z,96244.53
2023-02-23T12:15:09.486Z,96250.38
2023-02-23T12:17:42.055Z,96252.06
2023-02-23T12:20:19.078Z,96245.09
2023-02-23T12:22:52.422Z,96248.72
2023-02-23T12:25:26.789Z,96245.09
2023-02-23T12:28:10.389Z,96242.44
2023-02-23T12:30:49.750Z,96241.19
2023-02-23T12:33:29.303Z,96238.66
2023-02-23T12:36:04.771Z,96241.47
2023-02-23T12:38:41.521Z,96232.25
2023-02-23T12:41:13.514Z,96238.41
2023-02-23T12:43:49.479Z,96231.03
2023-02-23T12:46:23.104Z,96231.72
2023-02-23T12:48:57.398Z,96233.13
2023-02-23T12:51:34.543Z,96238.00
2023-02-23T12:54:04.352Z,96225.72
2023-02-23T12:56:45.447Z,96230.59
2023-02-23T12:59:26.145Z,96229.78
2023-02-23T13:01:58.595Z,96227.97
2023-02-23T13:04:40.660Z,96223.66
2023-02-23T13:07:19.511Z,96225.03
2023-02-23T13:10:01.178Z,96223.66
2023-02-23T13:12:51.727Z,96213.72
2023-02-23T13:15:27.310Z,96219.31
2023-02-23T13:18:01.616Z,96221.41
2023-02-23T13:20:37.125Z,96217.25
2023-02-23T13:23:15.680Z,96222.78
2023-02-23T13:25:55.573Z,96220.00
2023-02-23T13:28:43.089Z,96228.25
2023-02-23T13:31:23.403Z,96222.09
2023-02-23T13:33:53.076Z,96224.03
2023-02-23T13:36:22.788Z,96223.47
2023-02-23T13:39:19.174Z,96215.53
2023-02-23T13:41:55.950Z,96223.75
2023-02-23T13:44:34.199Z,96216.94
2023-02-23T13:47:12.876Z,96221.53
2023-02-23T13:49:47.511Z,96214.69
2023-02-23T13:52:23.277Z,96223.03
2023-02-23T13:55:02.040Z,96219.53
2023-02-23T13:57:31.693Z,96215.38
2023-02-23T14:00:00.802Z,96226.09
2023-02-23T14:02:38.051Z,96218.28
2023-02-23T14:05:16.657Z,96218.56
2023-02-23T14:07:47.926Z,96221.75
2023-02-23T14:10:21.972Z,96224.38
2023-02-23T14:13:08.275Z,96221.03
2023-02-23T14:15:45.765Z,96224.47
2023-02-23T14:18:33.501Z,96224.47
2023-02-23T14:21:11.261Z,96222.66
2023-02-23T14:23:53.091Z,96216.50
2023-02-23T14:26:42.479Z,96224.44
2023-02-23T14:29:26.637Z,96221.22
2023-02-23T14:32:06.010Z,96218.72
2023-02-23T14:34:51.094Z,96216.78
2023-02-23T14:37:32.083Z,96218.59
2023-02-23T14:40:11.997Z,96223.72
2023-02-23T14:42:42.159Z,96215.78
2023-02-23T14:45:20.654Z,96210.91
2023-02-23T14:47:51.843Z,96219.00
2023-02-23T14:50:26.814Z,96219.94
2023-02-23T14:52:56.553Z,96212.81
2023-02-23T14:55:28.894Z,96218.09
2023-02-23T14:57:58.965Z,96220.34
2023-02-23T15:00:28.877Z,96221.88
2023-02-23T15:03:00.223Z,96221.47
2023-02-23T15:05:30.247Z,96227.47
2023-02-23T15:08:01.145Z,96218.28
2023-02-23T15:10:33.872Z,96224.41
2023-02-23T15:13:10.276Z,96222.31
2023-02-23T15:15:45.327Z,96218.72
2023-02-23T15:18:23.361Z,96219.00
2023-02-23T15:20:51.673Z,96225.22
2023-02-23T15:23:20.582Z,96222.59
2023-02-23T15:25:51.083Z,96218.53
2023-02-23T15:28:27.940Z,96223.69
2023-02-23T15:30:57.485Z,96221.88
2023-02-23T15:33:28.821Z,96229.09
2023-02-23T15:36:04.189Z,96231.88
2023-02-23T15:38:43.344Z,96236.16
2023-02-23T15:41:18.956Z,96235.16
2023-02-23T15:43:48.501Z,96234.13
2023-02-23T15:46:24.066Z,96233.88
2023-02-23T15:48:54.567Z,96231.34
2023-02-23T15:51:31.522Z,96230.53
2023-02-23T15:54:01.526Z,96238.59
2023-02-23T15:56:30.943Z,96232.00
2023-02-23T15:59:08.143Z,96232.13
2023-02-23T16:01:43.917Z,96226.28
2023-02-23T16:04:18.551Z,96231.56
2023-02-23T16:07:07.892Z,96230.75
2023-02-23T16:09:39.518Z,96232.94
2023-02-23T16:12:14.184Z,96240.16
2023-02-23T16:14:47.798Z,96238.47
2023-02-23T16:17:25.962Z,96234.88
2023-02-23T16:19:56.402Z,96240.97
2023-02-23T16:22:27.004Z,96239.94
2023-02-23T16:25:00.530Z,96237.31
2023-02-23T16:27:30.623Z,96235.19
2023-02-23T16:30:07.020Z,96242.41
2023-02-23T16:32:37.974Z,96242.66
2023-02-23T16:35:15.298Z,96234.72
2023-02-23T16:37:59.101Z,96229.81
2023-02-23T16:40:26.982Z,96231.63
2023-02-23T16:42:59.054Z,96235.25
2023-02-23T16:45:29.539Z,96237.19
2023-02-23T16:48:02.054Z,96231.06
2023-02-23T16:50:30.760Z,96230.47
2023-02-23T16:52:58.613Z,96230.63
2023-02-23T16:55:28.708Z,96241.31
2023-02-23T16:57:59.024Z,96237.69
2023-02-23T17:00:30.792Z,96244.06
2023-02-23T17:03:00.899Z,96237.25
2023-02-23T17:05:30.445Z,96245.28
2023-02-23T17:07:59.148Z,96247.34
2023-02-23T17:10:29.554Z,96250.69
2023-02-23T17:12:58.979Z,96252.63
2023-02-23T17:15:31.029Z,96246.50
2023-02-23T17:17:58.923Z,96249.28
2023-02-23T17:20:27.887Z,96251.34
2023-02-23T17:22:57.175Z,96247.13
2023-02-23T17:25:26.562Z,96256.13
2023-02-23T17:27:54.652Z,96252.22
2023-02-23T17:30:23.372Z,96254.25
2023-02-23T17:32:54.766Z,96259.78
2023-02-23T17:35:23.371Z,96264.34
2023-02-23T17:37:51.549Z,96264.50
2023-02-23T17:40:28.864Z,96260.41
2023-02-23T17:42:58.559Z,96254.53
2023-02-23T17:45:29.227Z,96266.06
2023-02-23T17:47:59.399Z,96272.69
2023-02-23T17:50:28.024Z,96270.16
2023-02-23T17:52:56.996Z,96267.91
2023-02-23T17:55:25.872Z,96266.81
2023-02-23T17:57:53.781Z,96265.25
2023-02-23T18:00:22.298Z,96268.16
2023-02-23T18:02:50.267Z,96263.81
2023-02-23T18:05:19.726Z,96262.28
2023-02-23T18:07:48.643Z,96264.06
2023-02-23T18:10:17.510Z,96255.56
2023-02-23T18:12:47.533Z,96270.44
2023-02-23T18:15:15.513Z,96265.28
2023-02-23T18:17:43.402Z,96267.91
2023-02-23T18:20:14.903Z,96271.75
2023-02-23T18:22:44.424Z,96274.63
2023-02-23T18:25:21.259Z,96272.13
2023-02-23T18:27:51.524Z,96271.16
2023-02-23T18:30:19.851Z,96285.44
2023-02-23T18:32:48.166Z,96281.09
2023-02-23T18:35:16.121Z,96276.19
2023-02-23T18:37:45.413Z,96284.97
2023-02-23T18:40:21.239Z,96268.44
2023-02-23T18:42:49.206Z,96271.44
2023-02-23T18:45:17.807Z,96274.19
2023-02-23T18:47:45.786Z,96273.34
2023-02-23T18:50:19.027Z,96267.09
2023-02-23T18:52:50.782Z,96269.16
2023-02-23T18:55:19.769Z,96262.09
2023-02-23T18:57:48.197Z,96256.09
2023-02-23T19:00:19.064Z,96262.09
2023-02-23T19:02:47.415Z,96264.25
2023-02-23T19:05:16.599Z,96263.41
2023-02-23T19:07:45.240Z,96272.88
2023-02-23T19:10:16.362Z,96266.75
2023-02-23T19:12:44.536Z,96258.16
2023-02-23T19:15:13.293Z,96265.44
2023-02-23T19:17:41.156Z,96261.13
2023-02-23T19:20:13.076Z,96256.81
2023-02-23T19:22:42.100Z,96262.91
2023-02-23T19:25:14.529Z,96257.78
2023-02-23T19:27:44.395Z,96263.16
2023-02-23T19:30:14.553Z,96263.16
2023-02-23T19:32:43.411Z,96266.06
2023-02-23T19:35:14.523Z,96265.22
2023-02-23T19:37:48.357Z,96262.81
2023-02-23T19:40:20.720Z,96264.59
2023-02-23T19:42:52.698Z,96258.50
2023-02-23T19:45:21.818Z,96258.41
2023-02-23T19:47:52.591Z,96247.72
2023-02-23T19:50:21.237Z,96259.34
2023-02-23T19:52:50.037Z,96254.91
2023-02-23T19:55:20.288Z,96255.97
2023-02-23T19:57:48.192Z,96252.41
2023-02-23T20:00:18.615Z,96251.69
2023-02-23T20:02:52.284Z,96249.88
2023-02-23T20:05:20.278Z,96257.88
2023-02-23T20:07:48.471Z,96256.81
2023-02-23T20:10:16.886Z,96262.94
2023-02-23T20:12:44.927Z,96262.31
2023-02-23T20:15:14.778Z,96257.16
2023-02-23T20:17:44.087Z,96251.22
2023-02-23T20:20:13.236Z,96256.47
2023-02-23T20:22:43.258Z,96260.06
2023-02-23T20:25:12.620Z,96262.81
2023-02-23T20:27:41.391Z,96261.75
2023-02-23T20:30:10.787Z,96261.13
2023-02-23T20:32:39.015Z,96256.69
2023-02-23T20:35:11.314Z,96260.31
2023-02-23T20:37:49.769Z,96266.63
2023-02-23T20:40:27.372Z,96270.19
2023-02-23T20:42:55.236Z,96266.00
2023-02-23T20:45:25.772Z,96267.69
2023-02-23T20:47:54.072Z,96267.81
2023-02-23T20:50:28.514Z,96268.78
2023-02-23T20:52:57.054Z,96266.97
2023-02-23T20:55:27.129Z,96266.25
2023-02-23T20:57:55.920Z,96259.19
2023-02-23T21:00:32.047Z,96258.59
2023-02-23T21:03:01.720Z,96262.16
2023-02-23T21:05:33.077Z,96254.25
2023-02-23T21:08:01.981Z,96256.19
2023-02-23T21:10:32.366Z,96255.22
2023-02-23T21:13:00.915Z,96258.59
2023-02-23T21:15:30.055Z,96248.28
2023-02-23T21:17:59.427Z,96254.50
2023-02-23T21:20:27.879Z,96252.94
2023-02-23T21:22:57.234Z,96252.81
2023-02-23T21:25:26.758Z,96241.44
2023-02-23T21:27:55.143Z,96236.19
2023-02-23T21:30:28.590Z,96242.28
2023-02-23T21:32:59.482Z,96243.97
2023-02-23T21:35:27.464Z,96251.88
2023-02-23T21:37:55.300Z,96241.34
2023-02-23T21:40:24.937Z,96238.72
2023-02-23T21:42:53.357Z,96236.06
2023-02-23T21:45:21.426Z,96236.91
2023-02-23T21:47:50.093Z,96236.06
2023-02-23T21:50:20.132Z,96236.19
2023-02-23T21:52:51.200Z,96237.16
2023-02-23T21:55:22.739Z,96234.50
2023-02-23T21:57:52.844Z,96237.00
2023-02-23T22:00:22.752Z,96228.28
2023-02-23T22:02:51.395Z,96231.88
2023-02-23T22:05:20.717Z,96238.94
2023-02-23T22:07:50.015Z,96237.25
2023-02-23T22:10:19.396Z,96239.16
2023-02-23T22:12:47.577Z,96234.75
2023-02-23T22:15:17.190Z,96234.03
2023-02-23T22:17:45.380Z,96229.72
2023-02-23T22:20:13.906Z,96235.81
2023-02-23T22:22:42.866Z,96241.31
2023-02-23T22:25:11.677Z,96233.31
2023-02-23T22:27:41.590Z,96234.16
2023-02-23T22:30:12.175Z,96238.59
2023-02-23T22:32:42.598Z,96234.25
2023-02-23T22:35:11.799Z,96234.16
2023-02-23T22:37:39.814Z,96232.47
2023-02-23T22:40:14.369Z,96221.22
2023-02-23T22:42:43.429Z,96233.53
2023-02-23T22:45:12.579Z,96231.03
2023-02-23T22:47:41.875Z,96218.81
2023-02-23T22:50:12.185Z,96222.53
2023-02-23T22:52:40.739Z,96211.03
2023-02-23T22:55:09.431Z,96205.78
2023-02-23T22:57:37.332Z,96210.19
2023-02-23T23:00:08.408Z,96208.53
2023-02-23T23:02:36.678Z,96210.19
2023-02-23T23:05:07.119Z,96209.34
2023-02-23T23:07:35.054Z,96203.16
2023-02-23T23:10:05.430Z,96203.25
2023-02-23T23:12:34.429Z,96204.22
2023-02-23T23:15:03.154Z,96196.53
2023-02-23T23:17:32.521Z,96200.97
2023-02-23T23:20:01.153Z,96199.06
2023-02-23T23:22:33.229Z,96204.34
2023-02-23T23:25:01.106Z,96194.63
2023-02-23T23:27:28.913Z,96183.38
2023-02-23T23:29:57.310Z,96185.19
2023-02-23T23:32:27.494Z,96179.34
2023-02-23T23:34:57.324Z,96172.13
2023-02-23T23:37:29.018Z,96170.47
2023-02-23T23:40:00.238Z,96174.28
2023-02-23T23:42:28.281Z,96172.72
2023-02-23T23:44:57.018Z,96164.97
2023-02-23T23:47:25.123Z,96171.28
2023-02-23T23:49:54.732Z,96165.31
2023-02-23T23:52:22.825Z,96161.81
2023-02-23T23:54:50.767Z,96166.38
2023-02-23T23:57:21.221Z,96160.53
2023-02-23T23:59:49.567Z,96168.53
